Terminal Aerodrome Forecast
Issued by NWS

Home | Current Version | Previous Version | Text Only | Print | Product List | Glossary On
Versions: 1 2 3 4 5 6 7 8 9 10 11 12 13 14 15 16 17 18 19 20 21 22 23 24 25 26 27 28 29 30 31 32
000
FTUS42 KFFC 021730
TAFRYY
TAF
KRYY 021730Z 0218/0318 25008KT P6SM VCSH SCT030
      TEMPO 0218/0222 VRB15G25KT 6SM TSRA BKN035CB
     FM030100 24007KT P6SM VCSH BKN050 BKN100
     FM030900 23008KT P6SM BKN015
     FM031400 25011KT P6SM BKN025 BKN250
     FM031600 26012G18KT P6SM SCT050 BKN250=

USA.gov is the U.S. government's official web portal to all federal, state and local government web resources and services.